Time;durP1;ratioP1;P1;durP2;ratioP2;P2;SDS_P1;SDS_P2;PMS_P1;PMS_P2;Temp;Humidity;BMP_temperature;BMP_pressure;BME280_temperature;BME280_humidity;BME280_pressure;Samples;Min_cycle;Max_cycle;Signal;HPM_P1;HPM_P2
2022/02/14 00:00:37;;;;;;;7.10;2.50;;;;;;;-1.73;72.27;99619.02;105283;1270;75709;-24
2022/02/14 00:03:06;;;;;;;7.00;3.30;;;;;;;-1.90;72.55;99617.00;105135;1271;74467;-24
2022/02/14 00:05:35;;;;;;;3.30;2.40;;;;;;;-2.08;73.24;99620.45;105072;1270;61346;-24
2022/02/14 00:08:04;;;;;;;3.70;1.30;;;;;;;-2.29;73.87;99618.66;105101;1271;61057;-24
2022/02/14 00:10:33;;;;;;;5.60;3.50;;;;;;;-2.41;74.27;99619.05;104909;1272;75507;-24
2022/02/14 00:13:01;;;;;;;4.60;3.60;;;;;;;-2.02;73.64;99617.09;104983;1271;75109;-24
2022/02/14 00:15:35;;;;;;;2.60;2.00;;;;;;;-1.72;72.06;99612.54;104866;1271;74426;-24
2022/02/14 00:18:04;;;;;;;4.50;2.70;;;;;;;-1.82;72.05;99614.98;104983;1270;61143;-23
2022/02/14 00:20:51;;;;;;;6.20;3.80;;;;;;;-2.07;72.71;99611.24;104896;1271;60955;-24
2022/02/14 00:23:19;;;;;;;5.40;3.00;;;;;;;-2.33;73.72;99608.86;104902;1271;75546;-23
2022/02/14 00:25:48;;;;;;;4.60;2.70;;;;;;;-2.51;74.39;99605.98;104898;1271;74475;-23
2022/02/14 00:28:17;;;;;;;2.50;2.20;;;;;;;-2.42;74.54;99602.55;104950;1271;74156;-23
2022/02/14 00:30:45;;;;;;;4.30;3.30;;;;;;;-1.98;73.17;99608.83;104949;1271;61138;-23
2022/02/14 00:33:13;;;;;;;4.30;2.40;;;;;;;-1.88;72.46;99607.96;104918;1271;61022;-23
2022/02/14 00:35:42;;;;;;;4.60;2.60;;;;;;;-2.09;72.90;99603.79;104976;1269;75659;-23
2022/02/14 00:38:12;;;;;;;2.00;1.50;;;;;;;-2.27;73.27;99598.04;105042;1270;76177;-22
2022/02/14 00:40:40;;;;;;;4.50;2.90;;;;;;;-2.53;74.29;99593.09;104958;1271;73228;-23
2022/02/14 00:43:08;;;;;;;8.20;3.60;;;;;;;-2.73;75.27;99589.89;104924;1271;61264;-23
2022/02/14 00:45:36;;;;;;;5.00;3.70;;;;;;;-2.50;74.98;99583.33;104946;1270;61179;-23
2022/02/14 00:48:05;;;;;;;6.90;3.20;;;;;;;-2.08;73.57;99587.09;105089;1270;75085;-22
2022/02/14 00:50:34;;;;;;;2.70;1.90;;;;;;;-2.07;73.23;99592.52;105187;1271;74333;-23
2022/02/14 00:53:04;;;;;;;5.00;2.10;;;;;;;-2.21;73.70;99589.23;105290;1271;74497;-23
2022/02/14 00:55:33;;;;;;;3.20;2.20;;;;;;;-2.39;74.05;99590.27;105158;1271;61233;-22
2022/02/14 00:58:01;;;;;;;3.90;3.00;;;;;;;-2.62;74.87;99586.80;105186;1271;61138;-23
2022/02/14 01:00:31;;;;;;;3.90;2.60;;;;;;;-2.81;75.34;99587.13;105293;1271;76477;-23
2022/02/14 01:03:00;;;;;;;7.90;3.40;;;;;;;-2.81;75.89;99586.45;105263;1270;75802;-23
2022/02/14 01:05:28;;;;;;;6.00;3.10;;;;;;;-2.28;74.37;99591.06;105146;1271;74586;-22
2022/02/14 01:07:57;;;;;;;3.70;2.30;;;;;;;-2.09;73.21;99586.11;105000;1271;61125;-23
2022/02/14 01:10:25;;;;;;;5.90;2.70;;;;;;;-2.25;73.33;99580.48;104963;1271;61143;-23
2022/02/14 01:12:54;;;;;;;2.80;2.20;;;;;;;-2.52;74.20;99570.95;104927;1271;75564;-23
2022/02/14 01:15:22;;;;;;;4.00;2.40;;;;;;;-2.73;74.66;99569.14;105009;1270;75569;-22
2022/02/14 01:17:52;;;;;;;3.90;1.80;;;;;;;-2.99;75.50;99567.73;104924;1271;71868;-22
2022/02/14 01:20:20;;;;;;;4.60;2.50;;;;;;;-3.05;76.12;99564.78;104974;1271;62863;-23
2022/02/14 01:22:49;;;;;;;5.60;2.60;;;;;;;-2.56;75.05;99566.44;104901;1271;61218;-23
2022/02/14 01:25:17;;;;;;;9.00;3.20;;;;;;;-2.38;74.06;99564.41;105154;1271;75280;-23
2022/02/14 01:27:45;;;;;;;3.50;2.70;;;;;;;-2.47;74.20;99560.50;105046;1270;76546;-23
2022/02/14 01:30:13;;;;;;;4.80;2.60;;;;;;;-2.73;74.68;99549.60;104944;1271;74468;-23
2022/02/14 01:32:42;;;;;;;7.10;4.40;;;;;;;-2.95;75.59;99545.58;104910;1271;61128;-23
2022/02/14 01:35:10;;;;;;;2.90;2.30;;;;;;;-3.10;76.46;99542.46;104859;1271;62217;-23
2022/02/14 01:37:39;;;;;;;7.70;3.70;;;;;;;-2.83;76.11;99539.75;105312;1271;75378;-22
2022/02/14 01:40:09;;;;;;;5.40;3.30;;;;;;;-2.37;74.33;99541.59;104986;1271;76347;-23
2022/02/14 01:42:39;;;;;;;7.80;2.80;;;;;;;-2.38;73.86;99537.53;104966;1272;74420;-23
2022/02/14 01:45:10;;;;;;;4.90;3.00;;;;;;;-2.52;74.10;99536.27;104922;1271;60949;-22
2022/02/14 01:47:40;;;;;;;5.90;3.20;;;;;;;-2.80;74.88;99531.04;104859;1271;61138;-23
2022/02/14 01:50:10;;;;;;;5.10;2.40;;;;;;;-3.02;75.57;99528.20;104973;1271;75426;-25
2022/02/14 01:52:40;;;;;;;3.10;2.00;;;;;;;-3.24;76.51;99525.69;104900;1271;76091;-25
2022/02/14 01:55:12;;;;;;;5.30;3.20;;;;;;;-3.00;76.31;99525.79;105245;1271;73536;-23
2022/02/14 01:57:41;;;;;;;6.80;3.80;;;;;;;-2.51;74.63;99524.02;104780;1271;61113;-23
2022/02/14 02:00:11;;;;;;;10.30;2.90;;;;;;;-2.48;74.08;99525.83;104967;1271;61029;-24
2022/02/14 02:02:40;;;;;;;3.10;2.30;;;;;;;-2.64;74.22;99528.67;104704;1271;75758;-24
2022/02/14 02:05:08;;;;;;;4.50;2.20;;;;;;;-2.87;74.84;99524.02;104906;1271;75098;-23
2022/02/14 02:07:37;;;;;;;3.20;2.10;;;;;;;-3.08;75.64;99519.99;104886;1271;72638;-24
2022/02/14 02:10:07;;;;;;;3.50;2.50;;;;;;;-3.29;76.51;99514.92;105016;1271;61153;-24
2022/02/14 02:12:37;;;;;;;4.10;2.20;;;;;;;-2.98;75.98;99513.52;104978;1271;61151;-24
2022/02/14 02:15:06;;;;;;;5.40;3.30;;;;;;;-2.60;74.71;99512.63;104845;1271;75469;-24
2022/02/14 02:17:38;;;;;;;10.60;3.40;;;;;;;-2.62;74.21;99514.88;105146;1271;74876;-23
2022/02/14 02:20:08;;;;;;;3.90;2.10;;;;;;;-2.81;74.53;99515.92;104812;1271;73375;-24
2022/02/14 02:22:36;;;;;;;6.70;3.70;;;;;;;-3.03;75.07;99512.59;104620;1271;61293;-23
2022/02/14 02:25:05;;;;;;;7.50;3.90;;;;;;;-3.28;76.03;99509.80;104905;1271;61724;-24
2022/02/14 02:27:34;;;;;;;5.00;3.50;;;;;;;-3.28;76.63;99511.16;104952;1271;75466;-24
2022/02/14 02:30:05;;;;;;;4.10;2.30;;;;;;;-2.77;75.04;99513.63;105144;1271;76009;-24
2022/02/14 02:32:33;;;;;;;4.20;2.80;;;;;;;-2.66;74.14;99514.61;105076;1271;74398;-24
2022/02/14 02:35:03;;;;;;;3.80;2.20;;;;;;;-2.85;74.48;99511.08;105306;1270;61355;-24
2022/02/14 02:37:32;;;;;;;6.10;2.60;;;;;;;-3.08;75.32;99509.30;105149;1270;61125;-24
2022/02/14 02:40:01;;;;;;;2.90;2.50;;;;;;;-3.30;76.06;99510.35;105332;1270;75561;-24
2022/02/14 02:42:29;;;;;;;4.30;3.30;;;;;;;-3.38;76.57;99507.43;104942;1271;76471;-23
2022/02/14 02:44:58;;;;;;;4.40;2.70;;;;;;;-2.95;75.71;99506.67;105040;1271;73356;-24
2022/02/14 02:47:29;;;;;;;4.40;2.90;;;;;;;-2.62;74.28;99510.96;104905;1271;61127;-24
2022/02/14 02:49:57;;;;;;;8.30;3.60;;;;;;;-2.67;73.68;99511.25;105017;1271;61838;-24
2022/02/14 02:52:26;;;;;;;5.00;2.70;;;;;;;-2.95;74.41;99512.45;104959;1271;75408;-23
2022/02/14 02:54:56;;;;;;;6.70;3.10;;;;;;;-3.20;75.24;99506.62;104977;1271;75748;-24
2022/02/14 02:57:25;;;;;;;4.70;2.70;;;;;;;-3.46;76.31;99503.48;105209;1271;70330;-24
2022/02/14 02:59:54;;;;;;;5.20;3.00;;;;;;;-3.35;76.70;99506.86;105017;1270;61606;-24
2022/02/14 03:02:22;;;;;;;6.00;3.30;;;;;;;-2.92;75.35;99505.09;105012;1271;61022;-24
2022/02/14 03:04:50;;;;;;;2.00;1.80;;;;;;;-2.74;74.19;99508.84;104975;1269;75243;-24
2022/02/14 03:07:19;;;;;;;7.90;3.80;;;;;;;-2.89;74.16;99511.31;104931;1271;76489;-24
2022/02/14 03:09:47;;;;;;;10.80;4.90;;;;;;;-3.13;75.03;99511.25;104679;1271;410955;-24
2022/02/14 03:12:20;;;;;;;3.10;2.30;;;;;;;-3.42;76.13;99509.54;105038;1270;61044;-24
2022/02/14 03:14:49;;;;;;;3.50;2.60;;;;;;;-3.62;76.88;99508.84;105294;1270;61150;-23
2022/02/14 03:17:17;;;;;;;3.00;2.20;;;;;;;-3.33;76.40;99507.16;105331;1270;75676;-24
2022/02/14 03:19:46;;;;;;;2.90;1.40;;;;;;;-2.92;74.79;99505.59;105125;1271;76100;-24
2022/02/14 03:22:14;;;;;;;6.70;4.00;;;;;;;-2.82;74.05;99502.36;105118;1271;73430;-24
2022/02/14 03:24:43;;;;;;;5.40;3.30;;;;;;;-2.98;73.92;99498.73;105287;1270;61604;-24
2022/02/14 03:27:11;;;;;;;7.20;3.60;;;;;;;-3.27;74.67;99496.88;105289;1271;61048;-23
2022/02/14 03:29:40;;;;;;;4.20;2.00;;;;;;;-3.51;75.44;99500.52;105137;1271;75471;-24
2022/02/14 03:32:08;;;;;;;5.50;2.80;;;;;;;-3.76;75.91;99497.17;105084;1271;75805;-24
2022/02/14 03:34:36;;;;;;;3.60;1.50;;;;;;;-3.80;76.99;99497.23;104890;1270;72465;-24
2022/02/14 03:37:04;;;;;;;4.20;2.90;;;;;;;-3.28;75.77;99498.77;104931;1270;61159;-24
2022/02/14 03:39:33;;;;;;;5.30;2.60;;;;;;;-3.00;74.63;99495.20;105031;1271;61067;-23
2022/02/14 03:42:01;;;;;;;3.10;2.00;;;;;;;-3.12;74.53;99495.77;104995;1271;74753;-24
2022/02/14 03:44:30;;;;;;;4.20;2.80;;;;;;;-3.36;75.26;99498.58;104828;1271;76150;-24
2022/02/14 03:46:58;;;;;;;4.60;2.60;;;;;;;-3.59;75.96;99494.71;104980;1271;74413;-24
2022/02/14 03:49:27;;;;;;;7.30;3.20;;;;;;;-3.81;76.98;99495.89;104964;1271;60955;-24
2022/02/14 03:51:55;;;;;;;6.90;2.80;;;;;;;-3.67;77.19;99496.17;105186;1271;61751;-24
2022/02/14 03:54:24;;;;;;;5.00;2.90;;;;;;;-3.18;75.25;99496.90;105199;1271;75378;-24
2022/02/14 03:56:52;;;;;;;5.00;2.70;;;;;;;-3.11;74.59;99493.21;105137;1271;75794;-23
2022/02/14 03:59:21;;;;;;;8.20;4.20;;;;;;;-3.28;74.81;99490.62;105125;1271;73344;-24
2022/02/14 04:01:49;;;;;;;10.10;5.20;;;;;;;-3.56;75.72;99488.39;104952;1271;61131;-24
2022/02/14 04:04:17;;;;;;;9.80;4.30;;;;;;;-3.79;76.69;99489.08;104813;1273;61949;-24
2022/02/14 04:06:46;;;;;;;6.40;3.40;;;;;;;-3.96;77.48;99483.40;104943;1271;75528;-23
2022/02/14 04:09:15;;;;;;;9.10;3.50;;;;;;;-3.64;76.84;99483.41;104885;1271;75071;-24
2022/02/14 04:11:43;;;;;;;3.20;2.70;;;;;;;-3.34;75.58;99481.55;104964;1270;73207;-24
2022/02/14 04:14:12;;;;;;;4.60;2.40;;;;;;;-3.32;75.18;99482.36;105002;1271;61114;-24
2022/02/14 04:16:41;;;;;;;4.90;2.70;;;;;;;-3.49;75.41;99481.63;105182;1271;61115;-24
2022/02/14 04:19:09;;;;;;;6.10;3.40;;;;;;;-3.78;76.23;99478.02;105319;1271;75487;-23
2022/02/14 04:21:37;;;;;;;6.10;3.30;;;;;;;-4.00;76.50;99480.75;105036;1271;75811;-24
2022/02/14 04:24:06;;;;;;;4.50;1.90;;;;;;;-4.20;76.83;99479.51;104933;1271;73119;-24
2022/02/14 04:26:34;;;;;;;6.80;2.50;;;;;;;-4.23;77.28;99481.23;104942;1271;62479;-24
2022/02/14 04:29:03;;;;;;;5.60;3.30;;;;;;;-3.65;76.81;99482.06;105064;1271;61923;-23
2022/02/14 04:31:31;;;;;;;12.00;5.50;;;;;;;-3.30;75.24;99482.16;105125;1271;75284;-24
2022/02/14 04:36:16;;;;;;;7.30;3.90;;;;;;;-3.52;75.11;99485.27;101706;1310;601261;-24
2022/02/14 04:38:44;;;;;;;4.30;2.60;;;;;;;-3.82;75.28;99487.60;104504;1284;61156;-24
2022/02/14 04:41:12;;;;;;;9.60;4.20;;;;;;;-4.08;76.15;99484.26;104481;1284;61054;-24
2022/02/14 04:43:40;;;;;;;4.80;2.80;;;;;;;-4.29;76.84;99486.23;104486;1284;74332;-24
2022/02/14 04:46:09;;;;;;;8.20;3.50;;;;;;;-4.49;76.77;99489.39;104423;1284;76038;-24
2022/02/14 04:48:38;;;;;;;5.20;2.50;;;;;;;-4.68;77.14;99492.33;104431;1284;74472;-24
2022/02/14 04:51:06;;;;;;;8.20;3.90;;;;;;;-4.31;77.59;99489.98;104444;1281;164807;-24
2022/02/14 04:53:36;;;;;;;6.40;3.10;;;;;;;-3.63;76.01;99490.86;104572;1281;61461;-24
2022/02/14 04:56:04;;;;;;;8.00;3.00;;;;;;;-3.49;75.14;99491.66;104541;1281;73857;-24
2022/02/14 04:58:32;;;;;;;7.00;3.20;;;;;;;-3.68;75.50;99490.60;104604;1281;76005;-24
2022/02/14 05:01:01;;;;;;;4.50;2.50;;;;;;;-3.92;76.32;99491.64;104558;1281;74523;-22
2022/02/14 05:03:30;;;;;;;4.60;2.30;;;;;;;-4.12;76.41;99495.34;104534;1281;61033;-23
2022/02/14 05:05:59;;;;;;;4.20;2.30;;;;;;;-4.37;77.07;99494.31;104489;1281;62103;-23
2022/02/14 05:08:27;;;;;;;7.80;3.60;;;;;;;-4.59;77.25;99498.14;105035;1274;73838;-23
2022/02/14 05:10:59;;;;;;;2.30;1.40;;;;;;;-4.60;78.00;99498.15;105150;1274;75987;-25
2022/02/14 05:13:27;;;;;;;7.30;3.90;;;;;;;-3.90;76.74;99498.73;105145;1274;74360;-23
2022/02/14 05:15:56;;;;;;;11.40;5.10;;;;;;;-3.52;75.45;99498.33;105131;1274;61117;-23
2022/02/14 05:18:25;;;;;;;7.30;3.10;;;;;;;-3.58;75.13;99497.92;105025;1273;61023;-23
2022/02/14 05:20:53;;;;;;;6.80;2.70;;;;;;;-3.82;75.60;99498.30;104832;1273;74789;-23
2022/02/14 05:23:22;;;;;;;3.60;1.90;;;;;;;-4.13;76.44;99494.66;104607;1275;75972;-23
2022/02/14 05:25:50;;;;;;;4.30;2.30;;;;;;;-4.33;77.40;99493.23;104763;1274;74375;-23
2022/02/14 05:28:19;;;;;;;5.20;2.70;;;;;;;-4.51;78.03;99496.37;104650;1274;61121;-24
2022/02/14 05:30:47;;;;;;;6.80;4.00;;;;;;;-4.22;77.95;99498.69;104675;1274;61167;-23
2022/02/14 05:33:16;;;;;;;4.40;2.50;;;;;;;-3.67;76.46;99498.91;104606;1274;74661;-23
2022/02/14 05:35:44;;;;;;;13.60;5.50;;;;;;;-3.53;75.59;99503.25;104550;1274;75163;-23
2022/02/14 05:38:13;;;;;;;8.30;4.90;;;;;;;-3.63;75.21;99509.54;104724;1274;73200;-23
2022/02/14 05:40:41;;;;;;;9.90;3.90;;;;;;;-3.85;75.84;99512.40;104722;1274;61070;-24
2022/02/14 05:43:12;;;;;;;12.60;5.70;;;;;;;-4.14;76.77;99508.23;104645;1274;61164;-23
2022/02/14 05:45:40;;;;;;;8.50;3.80;;;;;;;-4.33;77.32;99510.35;104611;1274;74073;-23
2022/02/14 05:48:08;;;;;;;5.30;2.40;;;;;;;-4.25;77.89;99513.82;104592;1274;75058;-24
2022/02/14 05:50:37;;;;;;;5.70;3.90;;;;;;;-3.63;76.66;99517.00;104610;1274;72914;-23
2022/02/14 05:53:05;;;;;;;4.90;3.40;;;;;;;-3.37;75.39;99517.95;104594;1274;61025;-23
2022/02/14 05:55:33;;;;;;;5.00;3.00;;;;;;;-3.47;75.43;99524.05;104765;1274;61124;-23
2022/02/14 05:58:03;;;;;;;8.10;3.90;;;;;;;-3.66;75.84;99530.79;104636;1274;73684;-23
2022/02/14 06:00:32;;;;;;;7.20;3.20;;;;;;;-3.89;76.25;99529.77;104706;1277;76007;-24
2022/02/14 06:03:00;;;;;;;5.10;3.10;;;;;;;-4.06;76.75;99527.98;104648;1274;74137;-24
2022/02/14 06:05:28;;;;;;;4.00;2.10;;;;;;;-4.13;77.64;99524.34;104681;1274;62006;-23
2022/02/14 06:07:57;;;;;;;5.60;3.60;;;;;;;-3.52;76.87;99524.63;104668;1275;61443;-24
2022/02/14 06:10:27;;;;;;;6.00;3.50;;;;;;;-3.21;75.32;99520.38;104585;1274;74824;-23
2022/02/14 06:12:56;;;;;;;13.20;3.10;;;;;;;-3.26;75.25;99521.66;104661;1274;75985;-23
2022/02/14 06:15:25;;;;;;;3.00;2.30;;;;;;;-3.38;75.67;99522.54;104790;1274;74329;-23
2022/02/14 06:17:54;;;;;;;5.20;3.80;;;;;;;-3.51;76.06;99525.27;104616;1274;61834;-23
2022/02/14 06:20:23;;;;;;;9.80;3.10;;;;;;;-3.62;76.45;99522.25;104634;1274;61132;-23
2022/02/14 06:22:51;;;;;;;5.40;3.60;;;;;;;-3.58;76.92;99524.72;104569;1275;71799;-23
2022/02/14 06:25:21;;;;;;;4.70;3.20;;;;;;;-3.02;75.36;99523.78;104653;1274;74393;-23
2022/02/14 06:27:49;;;;;;;7.20;3.20;;;;;;;-2.78;74.02;99525.05;104755;1274;74098;-22
2022/02/14 06:30:19;;;;;;;7.90;5.10;;;;;;;-2.83;73.98;99524.63;104736;1274;61227;-23
2022/02/14 06:32:48;;;;;;;6.70;4.50;;;;;;;-2.97;74.29;99522.51;104922;1274;61175;-23
2022/02/14 06:35:16;;;;;;;7.60;4.60;;;;;;;-3.09;74.66;99525.10;104777;1274;74762;-23
2022/02/14 06:37:46;;;;;;;6.80;4.20;;;;;;;-3.24;75.32;99521.64;104617;1275;75017;-23
2022/02/14 06:40:14;;;;;;;10.90;5.70;;;;;;;-2.98;75.06;99527.80;104614;1274;74435;-23
2022/02/14 06:42:47;;;;;;;9.90;5.30;;;;;;;-2.50;73.08;99524.48;104642;1274;61371;-23
2022/02/14 06:45:17;;;;;;;9.80;5.60;;;;;;;-2.42;72.85;99526.73;104761;1274;61033;-24
2022/02/14 06:47:51;;;;;;;10.40;4.90;;;;;;;-2.46;72.84;99527.48;104612;1274;74927;-23
2022/02/14 06:50:19;;;;;;;11.30;8.00;;;;;;;-2.56;73.07;99522.91;104629;1274;74998;-23
2022/02/14 06:52:48;;;;;;;10.70;6.60;;;;;;;-2.72;73.45;99526.80;104640;1277;72403;-23
2022/02/14 06:55:16;;;;;;;13.30;7.10;;;;;;;-2.85;74.00;99528.58;104618;1274;61144;-23
2022/02/14 06:57:45;;;;;;;10.30;6.40;;;;;;;-2.78;74.35;99524.19;104757;1277;62019;-21
2022/02/14 07:00:14;;;;;;;8.30;5.10;;;;;;;-2.29;73.08;99525.27;104863;1274;74832;-24
2022/02/14 07:02:42;;;;;;;8.80;4.90;;;;;;;-2.05;72.17;99523.23;104654;1275;74086;-24
2022/02/14 07:05:14;;;;;;;11.80;5.60;;;;;;;-2.02;71.94;99522.14;104644;1275;71891;-23
2022/02/14 07:07:43;;;;;;;10.00;6.10;;;;;;;-2.04;72.30;99522.17;104614;1274;61132;-23
2022/02/14 07:10:20;;;;;;;11.00;6.70;;;;;;;-2.05;72.06;99520.85;104692;1277;61133;-24
2022/02/14 07:12:50;;;;;;;7.10;5.20;;;;;;;-2.11;72.50;99523.02;104695;1277;73819;-23
2022/02/14 07:15:18;;;;;;;8.50;4.00;;;;;;;-2.00;72.45;99525.16;104943;1274;75995;-22
2022/02/14 07:17:52;;;;;;;8.60;5.20;;;;;;;-1.98;71.85;99518.46;104664;1274;74323;-23
2022/02/14 07:20:21;;;;;;;15.10;6.50;;;;;;;-1.93;71.90;99526.35;104603;1277;61160;-23
2022/02/14 07:22:50;;;;;;;7.20;3.50;;;;;;;-1.84;71.78;99526.52;104772;1274;62207;-24
2022/02/14 07:25:19;;;;;;;12.10;5.80;;;;;;;-1.72;71.52;99526.91;104876;1274;73665;-23
2022/02/14 07:27:52;;;;;;;;;;;;;;;-1.64;71.45;99520.42;104737;1274;75009;-23
2022/02/14 07:30:20;;;;;;;9.00;5.00;;;;;;;-1.61;71.40;99523.08;104678;1274;74471;-23
2022/02/14 07:32:48;;;;;;;6.40;4.40;;;;;;;-1.50;71.26;99524.01;104842;1274;61259;-23
2022/02/14 07:35:17;;;;;;;7.10;3.80;;;;;;;-1.38;70.63;99529.19;104673;1274;61160;-24
2022/02/14 07:37:45;;;;;;;6.30;3.30;;;;;;;-1.25;70.85;99526.96;104765;1274;73660;-23
2022/02/14 07:40:14;;;;;;;8.80;5.70;;;;;;;-1.02;70.56;99528.10;104909;1274;76033;-23
2022/02/14 07:42:43;;;;;;;12.90;4.80;;;;;;;-0.90;69.75;99524.90;104711;1274;74527;-23
2022/02/14 07:45:12;;;;;;;7.70;4.00;;;;;;;-0.86;69.97;99518.80;104913;1274;61741;-23
2022/02/14 07:47:40;;;;;;;8.10;5.00;;;;;;;-0.73;69.55;99519.50;104780;1275;62288;-22
2022/02/14 07:50:13;;;;;;;7.10;3.80;;;;;;;-0.68;69.55;99516.64;104929;1274;74781;-24
2022/02/14 07:52:41;;;;;;;8.20;4.80;;;;;;;-0.57;69.14;99520.59;104871;1274;75799;-23
2022/02/14 07:55:09;;;;;;;6.20;3.20;;;;;;;-0.50;69.56;99520.73;104861;1274;74816;-23
2022/02/14 07:57:38;;;;;;;6.40;4.80;;;;;;;-0.33;69.05;99513.76;104893;1274;61119;-23
2022/02/14 08:00:08;;;;;;;10.60;5.50;;;;;;;-0.24;68.39;99511.28;104725;1274;62225;-23
2022/02/14 08:02:39;;;;;;;8.70;4.30;;;;;;;-0.21;68.84;99505.05;104751;1275;74004;-25
2022/02/14 08:05:08;;;;;;;11.40;5.20;;;;;;;-0.15;68.95;99507.62;104721;1274;75950;-23
2022/02/14 08:07:55;;;;;;;10.30;5.80;;;;;;;-0.18;68.58;99500.20;104836;1274;74250;-23
2022/02/14 08:10:43;;;;;;;10.00;6.30;;;;;;;-0.23;67.56;99501.52;104722;1277;61032;-24
2022/02/14 08:13:13;;;;;;;10.80;6.20;;;;;;;-0.33;68.44;99501.65;104881;1274;61045;-24
2022/02/14 08:15:42;;;;;;;8.30;4.40;;;;;;;-0.23;67.54;99492.81;104772;1274;71588;-24
2022/02/14 08:18:11;;;;;;;11.40;6.00;;;;;;;-0.10;67.92;99500.48;104802;1274;75645;-24
2022/02/14 08:20:39;;;;;;;8.00;5.90;;;;;;;0.04;67.13;99501.74;104691;1277;74392;-24
2022/02/14 08:23:08;;;;;;;9.10;5.40;;;;;;;0.09;66.73;99503.95;104770;1274;61153;-24
2022/02/14 08:25:37;;;;;;;14.10;6.10;;;;;;;0.14;66.52;99501.29;104822;1274;61195;-24
2022/02/14 08:28:05;;;;;;;11.40;6.00;;;;;;;0.13;66.51;99507.59;104913;1274;72837;-24
2022/02/14 08:30:35;;;;;;;7.60;4.70;;;;;;;0.22;65.71;99503.58;104911;1274;73464;-23
2022/02/14 08:33:05;;;;;;;7.30;4.50;;;;;;;0.27;66.10;99504.27;104927;1274;72587;-23
2022/02/14 08:35:40;;;;;;;6.60;4.50;;;;;;;0.35;65.60;99503.34;104590;1274;61426;-23
2022/02/14 08:38:08;;;;;;;8.20;4.40;;;;;;;0.42;65.89;99506.36;104564;1275;61291;-22
2022/02/14 08:40:37;;;;;;;5.40;3.00;;;;;;;0.38;66.08;99504.95;104398;1277;74909;-23
2022/02/14 08:43:05;;;;;;;11.10;6.40;;;;;;;0.77;66.22;99504.70;104676;1274;75748;-23
2022/02/14 08:45:53;;;;;;;8.70;5.50;;;;;;;0.74;64.98;99500.88;104720;1274;73414;-23
2022/02/14 08:48:21;;;;;;;9.00;4.30;;;;;;;0.99;65.58;99506.02;104582;1277;61055;-23
2022/02/14 08:50:50;;;;;;;10.20;6.20;;;;;;;1.28;64.95;99503.65;104708;1274;61094;-23
2022/02/14 08:53:21;;;;;;;6.00;3.50;;;;;;;1.15;64.25;99506.48;104918;1274;75511;-23
2022/02/14 08:55:50;;;;;;;9.50;5.60;;;;;;;1.23;63.48;99502.61;104903;1274;76054;-22
2022/02/14 08:58:18;;;;;;;9.70;4.20;;;;;;;1.31;62.57;99508.33;104879;1274;74112;-23
2022/02/14 09:00:48;;;;;;;7.40;3.80;;;;;;;1.32;63.78;99514.95;104841;1274;61054;-23
2022/02/14 09:03:19;;;;;;;7.00;3.70;;;;;;;1.56;63.27;99518.38;104882;1274;61112;-23
2022/02/14 09:05:48;;;;;;;8.50;4.70;;;;;;;1.91;62.58;99515.17;104905;1274;75375;-22
2022/02/14 09:08:17;;;;;;;6.20;4.20;;;;;;;1.94;61.81;99517.65;104895;1274;76027;-22
2022/02/14 09:10:47;;;;;;;14.60;6.10;;;;;;;2.01;61.64;99518.42;104776;1274;74188;-22
2022/02/14 09:13:15;;;;;;;8.90;5.30;;;;;;;1.75;60.96;99512.53;104433;1277;61109;-23
2022/02/14 09:15:43;;;;;;;5.10;3.40;;;;;;;1.92;61.32;99514.96;104602;1274;61110;-22
2022/02/14 09:18:12;;;;;;;8.50;4.60;;;;;;;2.03;61.16;99513.38;104643;1274;75597;-22
2022/02/14 09:20:42;;;;;;;8.80;4.80;;;;;;;2.13;60.44;99511.45;104594;1275;74554;-22
2022/02/14 09:23:12;;;;;;;8.90;4.30;;;;;;;2.07;60.53;99515.94;104702;1274;74344;-22
2022/02/14 09:25:41;;;;;;;10.60;5.30;;;;;;;2.46;60.26;99512.34;104644;1274;61150;-24
2022/02/14 09:28:09;;;;;;;9.00;4.40;;;;;;;2.79;59.17;99508.98;104633;1277;61110;-22
2022/02/14 09:30:39;;;;;;;9.60;4.80;;;;;;;2.87;57.91;99507.27;104816;1274;75540;-22
2022/02/14 09:33:07;;;;;;;8.60;4.50;;;;;;;2.77;57.69;99503.55;104920;1274;75971;-22
2022/02/14 09:35:36;;;;;;;6.50;4.10;;;;;;;2.69;58.46;99498.73;104891;1274;74382;-24
2022/02/14 09:38:04;;;;;;;8.80;4.70;;;;;;;2.94;58.26;99500.45;104664;1275;61227;-23
2022/02/14 09:40:34;;;;;;;6.70;4.70;;;;;;;3.06;56.91;99509.40;104992;1274;61710;-24
2022/02/14 09:43:13;;;;;;;7.20;4.50;;;;;;;3.08;56.97;99503.47;104749;1274;76020;-23
2022/02/14 09:45:41;;;;;;;5.40;3.20;;;;;;;3.06;55.86;99502.67;104705;1275;76124;-23
2022/02/14 09:48:11;;;;;;;5.50;3.40;;;;;;;2.79;55.63;99502.44;104627;1276;74140;-23
2022/02/14 09:50:40;;;;;;;13.50;2.90;;;;;;;2.98;56.95;99500.94;104492;1274;61085;-23
2022/02/14 09:53:10;;;;;;;5.50;3.50;;;;;;;3.27;55.86;99502.45;104501;1275;61141;-23
2022/02/14 09:55:45;;;;;;;6.80;3.50;;;;;;;3.50;55.83;99498.20;104396;1275;71489;-26
2022/02/14 09:58:13;;;;;;;5.10;2.30;;;;;;;3.64;55.38;99492.94;104668;1277;75459;-24
2022/02/14 10:00:42;;;;;;;6.90;3.10;;;;;;;3.77;54.76;99492.18;104407;1276;74497;-23
2022/02/14 10:03:15;;;;;;;8.00;4.00;;;;;;;3.78;54.91;99495.42;104895;1274;61134;-25
2022/02/14 10:05:47;;;;;;;6.20;3.90;;;;;;;3.90;54.98;99493.79;104738;1275;61553;-24
2022/02/14 10:08:24;;;;;;;5.50;3.40;;;;;;;4.03;54.28;99489.59;104620;1278;75585;-24
2022/02/14 10:10:55;;;;;;;5.50;2.70;;;;;;;3.89;54.46;99486.13;104739;1274;75109;-23
2022/02/14 10:13:28;;;;;;;5.80;3.20;;;;;;;3.68;55.29;99484.85;104744;1274;75652;-23
2022/02/14 10:16:00;;;;;;;8.30;4.10;;;;;;;3.68;55.44;99484.16;104690;1275;61123;-23
2022/02/14 10:18:34;;;;;;;4.20;2.60;;;;;;;4.01;55.14;99483.48;104764;1275;61836;-22
2022/02/14 10:21:21;;;;;;;6.10;3.80;;;;;;;4.17;54.10;99477.77;104781;1274;74747;-22
2022/02/14 10:24:10;;;;;;;6.00;3.70;;;;;;;4.08;53.80;99476.11;104766;1275;76071;-28
2022/02/14 10:26:47;;;;;;;4.70;3.20;;;;;;;3.84;53.94;99473.45;104700;1274;73486;-22
2022/02/14 10:29:25;;;;;;;9.10;3.30;;;;;;;3.69;53.86;99464.54;104618;1275;61639;-22
2022/02/14 10:31:56;;;;;;;3.60;2.50;;;;;;;3.90;54.10;99464.41;104742;1278;61093;-24
2022/02/14 10:34:39;;;;;;;5.20;3.80;;;;;;;3.90;54.19;99453.80;104756;1277;75565;-24
2022/02/14 10:37:13;;;;;;;8.00;2.80;;;;;;;3.98;53.28;99454.27;104717;1275;74864;-25
2022/02/14 10:39:43;;;;;;;5.90;3.30;;;;;;;4.01;53.73;99458.06;104717;1274;74462;-22
2022/02/14 10:42:14;;;;;;;11.00;3.90;;;;;;;4.37;54.22;99458.94;104730;1274;61164;-23
2022/02/14 10:47:42;;;;;;;5.30;3.00;;;;;;;4.70;53.06;99459.88;104660;1274;74329;-24
2022/02/14 10:50:18;;;;;;;5.40;3.20;;;;;;;4.48;51.91;99463.05;104652;1274;76084;-24
2022/02/14 10:52:55;;;;;;;5.50;3.60;;;;;;;4.37;52.17;99453.59;104636;1274;73374;-24
2022/02/14 10:55:28;;;;;;;8.30;3.70;;;;;;;4.49;52.01;99454.73;104640;1274;61214;-25
2022/02/14 10:57:57;;;;;;;6.60;4.00;;;;;;;4.42;52.16;99456.30;104652;1275;62019;-23
2022/02/14 11:00:32;;;;;;;4.10;2.70;;;;;;;4.26;51.50;99451.89;104679;1274;75374;-23
2022/02/14 11:03:06;;;;;;;7.00;2.70;;;;;;;3.94;53.16;99451.89;104782;1274;73379;-24
2022/02/14 11:05:38;;;;;;;6.20;3.50;;;;;;;4.21;53.77;99449.56;105006;1274;70611;-23
2022/02/14 11:08:09;;;;;;;5.60;3.80;;;;;;;4.47;52.65;99447.09;105154;1271;61019;-23
2022/02/14 11:10:40;;;;;;;7.40;3.20;;;;;;;4.56;52.68;99446.10;105098;1274;61757;-22
2022/02/14 11:13:08;;;;;;;5.00;3.30;;;;;;;4.43;52.21;99444.02;105012;1274;75563;-24
2022/02/14 11:15:36;;;;;;;5.00;3.40;;;;;;;4.46;52.44;99440.45;104669;1274;75872;-24
2022/02/14 11:18:08;;;;;;;5.30;3.30;;;;;;;4.26;52.55;99436.61;104836;1271;74899;-22
2022/02/14 11:20:38;;;;;;;4.70;2.90;;;;;;;4.25;52.92;99436.14;104782;1272;61136;-23
2022/02/14 11:23:09;;;;;;;5.30;2.30;;;;;;;4.47;52.80;99425.10;104791;1273;61996;-23
2022/02/14 11:25:49;;;;;;;3.40;2.50;;;;;;;4.66;52.92;99429.11;104971;1274;74701;-23
2022/02/14 11:28:48;;;;;;;6.30;3.40;;;;;;;4.86;51.81;99421.76;105123;1271;75014;-22
2022/02/14 11:31:21;;;;;;;4.40;2.70;;;;;;;4.97;51.77;99415.98;105130;1271;74425;-23
2022/02/14 11:33:54;;;;;;;6.20;3.20;;;;;;;4.95;51.38;99405.10;105048;1271;61093;-23
2022/02/14 11:36:23;;;;;;;5.70;3.30;;;;;;;4.89;52.00;99406.39;104742;1271;61838;-23
2022/02/14 11:38:52;;;;;;;4.80;3.10;;;;;;;5.00;52.23;99408.96;104602;1274;74474;-23
2022/02/14 11:41:36;;;;;;;5.30;3.20;;;;;;;4.66;50.95;99406.06;104895;1271;75747;-25
2022/02/14 11:44:11;;;;;;;5.40;3.00;;;;;;;4.44;52.15;99407.69;104903;1271;73215;-22